Time;durP1;ratioP1;P1;durP2;ratioP2;P2;SDS_P1;SDS_P2;PMS_P1;PMS_P2;Temp;Humidity;BMP_temperature;BMP_pressure;BME280_temperature;BME280_humidity;BME280_pressure;Samples;Min_cycle;Max_cycle;Signal;HPM_P1;HPM_P2
2023/10/30 00:00:09;;;;;;;91.30;86.73;;;10.00;99.90;;;;;;4892077;29;20291;-75
2023/10/30 00:02:35;;;;;;;;;;;10.10;99.90;;;;;;4890806;29;20308;-75
2023/10/30 00:05:02;;;;;;;134.13;127.50;;;10.00;99.90;;;;;;4896501;29;19958;-75
2023/10/30 00:07:27;;;;;;;97.27;92.80;;;10.00;99.90;;;;;;4895194;29;20355;-75
2023/10/30 00:09:54;;;;;;;92.30;88.03;;;10.00;99.90;;;;;;4892809;29;20734;-75
2023/10/30 00:12:19;;;;;;;93.53;89.23;;;10.00;99.90;;;;;;4887896;29;20061;-75
2023/10/30 00:14:45;;;;;;;118.67;113.20;;;10.00;99.90;;;;;;4892296;29;20305;-75
2023/10/30 00:17:11;;;;;;;79.80;76.13;;;9.90;99.90;;;;;;4892595;29;20045;-75
2023/10/30 00:19:36;;;;;;;120.00;114.53;;;9.90;99.90;;;;;;4892256;29;20103;-75
2023/10/30 00:22:03;;;;;;;92.03;87.70;;;9.90;99.90;;;;;;4876579;29;20090;-75
2023/10/30 00:24:29;;;;;;;87.83;83.30;;;9.90;99.90;;;;;;4875880;29;20032;-75
2023/10/30 00:26:55;;;;;;;90.07;85.83;;;9.90;99.90;;;;;;4892846;29;20320;-75
2023/10/30 00:29:21;;;;;;;77.53;74.10;;;9.90;99.90;;;;;;4876120;29;20836;-75
2023/10/30 00:31:47;;;;;;;86.60;82.70;;;9.90;99.90;;;;;;4891576;29;20048;-75
2023/10/30 00:34:13;;;;;;;95.67;91.33;;;9.80;99.90;;;;;;4888342;29;20386;-75
2023/10/30 00:36:39;;;;;;;85.27;80.80;;;9.80;99.90;;;;;;4874555;29;20048;-75
2023/10/30 00:39:05;;;;;;;78.03;74.60;;;9.80;99.90;;;;;;4891824;29;20044;-75
2023/10/30 00:41:31;;;;;;;82.03;78.47;;;9.80;99.90;;;;;;4883343;29;20044;-75
2023/10/30 00:43:56;;;;;;;78.70;75.27;;;9.80;99.90;;;;;;4891723;29;20092;-75
2023/10/30 00:46:22;;;;;;;80.40;76.80;;;9.80;99.90;;;;;;4875784;29;20297;-75
2023/10/30 00:48:49;;;;;;;80.20;76.70;;;9.80;99.90;;;;;;4892249;29;20047;-75
2023/10/30 00:51:15;;;;;;;92.43;88.03;;;9.80;99.90;;;;;;4892040;29;20068;-75
2023/10/30 00:53:41;;;;;;;106.13;101.27;;;9.80;99.90;;;;;;4876221;29;20288;-75
2023/10/30 00:56:07;;;;;;;94.60;90.03;;;9.80;99.90;;;;;;4891263;29;20293;-75
2023/10/30 00:58:34;;;;;;;110.17;105.17;;;9.80;99.90;;;;;;4892060;29;20333;-75
2023/10/30 01:01:00;;;;;;;104.03;98.90;;;9.80;99.90;;;;;;4891244;29;20284;-75
2023/10/30 01:03:25;;;;;;;123.40;117.57;;;9.80;99.90;;;;;;4892080;29;20289;-75
2023/10/30 01:05:59;;;;;;;91.60;87.60;;;9.80;99.90;;;;;;4875527;29;20292;-75
2023/10/30 01:08:26;;;;;;;79.07;75.27;;;9.80;99.90;;;;;;4869996;29;20100;-75
2023/10/30 01:10:52;;;;;;;106.47;100.73;;;9.80;99.90;;;;;;4890052;29;20293;-75
2023/10/30 01:13:18;;;;;;;74.60;71.10;;;9.80;99.90;;;;;;4874047;29;20320;-75
2023/10/30 01:15:44;;;;;;;94.83;90.60;;;9.80;99.90;;;;;;4889186;29;20792;-75
2023/10/30 01:18:09;;;;;;;124.47;118.63;;;9.80;99.90;;;;;;4890400;29;20105;-75
2023/10/30 01:20:39;;;;;;;73.17;69.57;;;9.80;99.90;;;;;;4875092;29;20123;-75
2023/10/30 01:23:05;;;;;;;79.30;75.73;;;9.80;99.90;;;;;;4884729;29;20508;-75
2023/10/30 01:25:31;;;;;;;116.10;110.57;;;9.80;99.90;;;;;;4894579;29;20323;-75
2023/10/30 01:27:56;;;;;;;79.83;76.13;;;9.80;99.90;;;;;;4890206;29;20044;-75
2023/10/30 01:30:22;;;;;;;68.13;64.93;;;9.80;99.90;;;;;;4874290;29;20037;-75
2023/10/30 01:32:48;;;;;;;68.23;65.13;;;9.70;99.90;;;;;;4889829;29;20040;-75
2023/10/30 01:35:13;;;;;;;97.90;93.60;;;9.70;99.90;;;;;;4874421;29;20882;-75
2023/10/30 01:37:39;;;;;;;82.97;79.13;;;9.70;99.90;;;;;;4874532;29;20044;-75
2023/10/30 01:40:06;;;;;;;96.17;91.90;;;9.70;99.90;;;;;;4889869;29;20055;-75
2023/10/30 01:42:32;;;;;;;86.90;83.07;;;9.60;99.90;;;;;;4897756;29;20539;-75
2023/10/30 01:44:58;;;;;;;78.40;75.10;;;9.60;99.90;;;;;;4891026;29;20308;-75
2023/10/30 01:47:27;;;;;;;84.20;80.63;;;9.50;99.90;;;;;;4877765;29;20040;-75
2023/10/30 01:49:55;;;;;;;98.27;93.80;;;9.50;99.90;;;;;;4874635;29;20303;-75
2023/10/30 01:52:22;;;;;;;81.80;78.27;;;9.40;99.90;;;;;;4890374;29;20372;-75
2023/10/30 01:54:52;;;;;;;81.57;77.83;;;9.40;99.90;;;;;;4898236;29;20958;-75
2023/10/30 01:57:21;;;;;;;76.67;73.30;;;9.40;99.90;;;;;;4893139;29;20699;-75
2023/10/30 01:59:49;;;;;;;96.50;92.17;;;9.40;99.90;;;;;;4898636;29;20297;-75
2023/10/30 02:02:15;;;;;;;90.20;86.33;;;9.40;99.90;;;;;;4872602;29;20317;-75
2023/10/30 02:04:41;;;;;;;77.33;73.97;;;9.40;99.90;;;;;;4887041;29;20285;-75
2023/10/30 02:07:07;;;;;;;84.07;80.43;;;9.40;99.90;;;;;;4887845;29;20121;-75
2023/10/30 02:09:33;;;;;;;115.13;110.20;;;9.40;99.90;;;;;;4888799;29;20397;-76
2023/10/30 02:11:59;;;;;;;108.77;104.17;;;9.40;99.90;;;;;;4873619;29;20800;-75
2023/10/30 02:14:24;;;;;;;105.97;101.47;;;9.40;99.90;;;;;;4890931;29;20064;-75
2023/10/30 02:16:51;;;;;;;115.30;110.37;;;9.40;99.90;;;;;;4875204;29;20131;-75
2023/10/30 02:19:22;;;;;;;96.13;91.93;;;9.40;99.90;;;;;;4890737;29;21071;-75
2023/10/30 02:21:48;;;;;;;114.67;109.57;;;9.30;99.90;;;;;;4889039;29;20312;-76
2023/10/30 02:24:15;;;;;;;102.83;98.27;;;9.30;99.90;;;;;;4887072;29;20277;-75
2023/10/30 02:26:40;;;;;;;94.70;90.60;;;9.30;99.90;;;;;;4878134;29;20301;-75
2023/10/30 02:29:06;;;;;;;107.70;102.80;;;9.30;99.90;;;;;;4889018;29;20300;-75
2023/10/30 02:31:33;;;;;;;111.60;106.50;;;9.30;99.90;;;;;;4872354;29;20059;-75
2023/10/30 02:34:00;;;;;;;104.97;100.17;;;9.20;99.90;;;;;;4891835;29;20048;-76
2023/10/30 02:36:25;;;;;;;104.90;100.43;;;9.20;99.90;;;;;;4890689;29;20348;-75
2023/10/30 02:38:52;;;;;;;125.53;120.00;;;9.20;99.90;;;;;;4886661;29;20329;-75
2023/10/30 02:41:19;;;;;;;105.33;100.80;;;9.20;99.90;;;;;;4894847;29;20046;-75
2023/10/30 02:43:44;;;;;;;118.30;113.07;;;9.20;99.90;;;;;;4875141;29;20333;-75
2023/10/30 02:46:10;;;;;;;113.10;107.87;;;9.10;99.90;;;;;;4890442;29;20296;-75
2023/10/30 02:48:36;;;;;;;98.20;94.00;;;9.10;99.90;;;;;;4893597;29;20041;-77
2023/10/30 02:51:02;;;;;;;109.10;104.07;;;9.10;99.90;;;;;;4878276;29;20285;-75
2023/10/30 02:53:28;;;;;;;90.63;86.53;;;9.00;99.90;;;;;;4893508;29;20041;-75
2023/10/30 02:55:54;;;;;;;106.83;102.03;;;9.00;99.90;;;;;;4898766;29;20493;-75
2023/10/30 02:58:20;;;;;;;122.83;117.03;;;9.00;99.90;;;;;;4895719;29;20052;-75
2023/10/30 03:00:46;;;;;;;93.53;89.23;;;8.90;99.90;;;;;;4872649;29;20371;-75
2023/10/30 03:03:11;;;;;;;102.93;98.03;;;8.80;99.90;;;;;;4893146;29;20045;-75
2023/10/30 03:05:37;;;;;;;134.23;127.97;;;8.80;99.90;;;;;;4878876;29;20638;-75
2023/10/30 03:08:03;;;;;;;90.83;86.77;;;8.70;99.90;;;;;;4887989;29;20131;-75
2023/10/30 03:10:29;;;;;;;116.03;110.82;;;8.70;99.90;;;;;;4892381;29;20550;-75
2023/10/30 03:12:56;;;;;;;100.40;95.80;;;8.60;99.90;;;;;;4875841;29;20064;-75
2023/10/30 03:15:22;;;;;;;113.70;108.40;;;8.60;99.90;;;;;;4878739;29;20304;-75
2023/10/30 03:17:48;;;;;;;79.43;75.67;;;8.60;99.90;;;;;;4893463;29;20716;-75
2023/10/30 03:20:14;;;;;;;124.83;118.57;;;8.60;99.90;;;;;;4871087;29;20381;-75
2023/10/30 03:22:40;;;;;;;113.57;108.03;;;8.50;99.90;;;;;;4876762;29;20044;-75
2023/10/30 03:25:06;;;;;;;85.93;81.57;;;8.50;99.90;;;;;;4896699;29;20455;-75
2023/10/30 03:27:33;;;;;;;99.05;94.43;;;8.50;99.90;;;;;;4879304;29;20300;-75
2023/10/30 03:29:59;;;;;;;112.68;107.28;;;8.40;99.90;;;;;;4877716;29;20051;-75
2023/10/30 03:32:25;;;;;;;96.18;91.55;;;8.40;99.90;;;;;;4893108;29;20048;-75
2023/10/30 03:34:50;;;;;;;93.27;88.77;;;8.40;99.90;;;;;;4877106;29;20401;-75
2023/10/30 03:37:16;;;;;;;110.97;105.70;;;8.30;99.90;;;;;;4875328;29;20045;-75
2023/10/30 03:39:42;;;;;;;108.97;103.77;;;8.30;99.90;;;;;;4877640;29;20166;-75
2023/10/30 03:42:07;;;;;;;102.30;97.30;;;8.30;99.90;;;;;;4897787;29;20048;-75
2023/10/30 03:44:33;;;;;;;102.83;97.83;;;8.30;99.90;;;;;;4893095;29;20099;-75
2023/10/30 03:46:59;;;;;;;128.17;121.30;;;8.30;99.90;;;;;;4877217;29;20420;-75
2023/10/30 03:49:25;;;;;;;104.80;99.63;;;8.30;99.90;;;;;;4877656;29;20040;-75
2023/10/30 03:51:51;;;;;;;129.17;123.13;;;8.30;99.90;;;;;;4892327;29;20052;-75
2023/10/30 03:54:17;;;;;;;107.57;102.17;;;8.40;99.90;;;;;;4877427;29;20495;-75
2023/10/30 03:56:43;;;;;;;116.15;110.55;;;8.40;99.90;;;;;;4893064;29;20614;-75
2023/10/30 03:59:10;;;;;;;149.73;141.50;;;8.50;99.90;;;;;;4891889;29;20040;-75
2023/10/30 04:01:35;;;;;;;123.20;117.07;;;8.50;99.90;;;;;;4876084;29;20084;-75
2023/10/30 04:04:02;;;;;;;147.90;140.47;;;8.50;99.90;;;;;;4874891;29;20076;-75
2023/10/30 04:06:29;;;;;;;128.57;122.10;;;8.60;99.90;;;;;;4891625;29;20040;-75
2023/10/30 04:08:55;;;;;;;105.70;100.00;;;8.60;99.90;;;;;;4892218;29;20501;-75
2023/10/30 04:11:20;;;;;;;93.93;89.37;;;8.60;99.90;;;;;;4870402;29;20051;-75
2023/10/30 04:13:46;;;;;;;110.80;105.27;;;8.70;99.90;;;;;;4893662;29;20596;-75
2023/10/30 04:16:15;;;;;;;103.57;98.23;;;8.70;99.90;;;;;;4892444;29;20503;-75
2023/10/30 04:18:41;;;;;;;143.48;136.13;;;8.80;99.90;;;;;;4876409;29;20056;-75
2023/10/30 04:21:07;;;;;;;127.70;121.00;;;8.90;99.90;;;;;;4888297;29;20040;-75
2023/10/30 04:23:33;;;;;;;118.27;112.60;;;9.00;99.90;;;;;;4892217;29;20176;-75
2023/10/30 04:25:59;;;;;;;271.03;255.10;;;9.10;99.90;;;;;;4890063;29;20285;-75
2023/10/30 04:28:24;;;;;;;96.43;91.03;;;9.10;99.90;;;;;;4892083;29;20095;-75
2023/10/30 04:30:50;;;;;;;114.17;108.10;;;9.10;99.90;;;;;;4870910;29;20393;-75
2023/10/30 04:33:17;;;;;;;88.40;83.70;;;9.20;99.90;;;;;;4880455;29;20151;-75
2023/10/30 04:35:43;;;;;;;99.97;94.90;;;9.20;99.90;;;;;;4892223;29;20044;-74
2023/10/30 04:38:08;;;;;;;99.30;93.90;;;9.20;99.90;;;;;;4875942;29;20649;-75
2023/10/30 04:40:34;;;;;;;94.43;89.63;;;9.20;99.90;;;;;;4890306;29;20044;-75
2023/10/30 04:43:01;;;;;;;94.83;89.00;;;9.20;99.90;;;;;;4876530;29;20123;-75
2023/10/30 04:45:27;;;;;;;92.00;87.57;;;9.20;99.90;;;;;;4890792;29;20509;-75
2023/10/30 04:47:52;;;;;;;95.47;90.67;;;9.20;99.90;;;;;;4893608;29;20317;-75
2023/10/30 04:50:18;;;;;;;105.10;99.50;;;9.10;99.90;;;;;;4893403;29;20638;-75
2023/10/30 04:52:44;;;;;;;103.80;98.40;;;9.10;99.90;;;;;;4894464;29;20060;-75
2023/10/30 04:55:10;;;;;;;106.07;100.80;;;9.00;99.90;;;;;;4876379;29;20044;-75
2023/10/30 04:57:36;;;;;;;129.23;122.63;;;8.90;99.90;;;;;;4873536;29;20048;-75
2023/10/30 05:00:04;;;;;;;153.03;145.90;;;8.80;99.90;;;;;;4879013;29;20394;-75
2023/10/30 05:02:30;;;;;;;127.97;121.90;;;8.80;99.90;;;;;;4874743;29;20308;-75
2023/10/30 05:04:56;;;;;;;72.50;68.37;;;8.70;99.90;;;;;;4890735;29;20292;-75
2023/10/30 05:07:22;;;;;;;95.67;91.13;;;8.70;99.90;;;;;;4889114;29;20293;-75
2023/10/30 05:09:48;;;;;;;143.57;136.13;;;8.70;99.90;;;;;;4872992;29;20413;-75
2023/10/30 05:12:14;;;;;;;163.43;155.97;;;8.70;99.90;;;;;;4890034;29;20127;-75
2023/10/30 05:14:40;;;;;;;147.57;140.87;;;8.60;99.90;;;;;;4876109;29;20880;-75
2023/10/30 05:17:08;;;;;;;180.67;172.60;;;8.60;99.90;;;;;;4891607;29;20036;-75
2023/10/30 05:19:35;;;;;;;154.53;147.20;;;8.60;99.90;;;;;;4891346;29;20280;-75
2023/10/30 05:22:00;;;;;;;125.20;119.10;;;8.50;99.90;;;;;;4889695;29;20309;-75
2023/10/30 05:24:26;;;;;;;164.80;156.90;;;8.50;99.90;;;;;;4869209;29;20292;-75
2023/10/30 05:26:54;;;;;;;147.00;140.30;;;8.40;99.90;;;;;;4892406;29;20360;-75
2023/10/30 05:29:20;;;;;;;122.90;117.17;;;8.40;99.90;;;;;;4891247;29;20036;-75
2023/10/30 05:31:46;;;;;;;128.20;122.23;;;8.40;99.90;;;;;;4876434;29;20702;-75
2023/10/30 05:34:11;;;;;;;125.47;119.10;;;8.40;99.90;;;;;;4890580;29;20388;-74
2023/10/30 05:36:37;;;;;;;146.77;139.23;;;8.40;99.90;;;;;;4890811;29;20131;-74
2023/10/30 05:39:03;;;;;;;115.07;109.47;;;8.50;99.90;;;;;;4873877;29;20574;-74
2023/10/30 05:41:28;;;;;;;162.80;154.90;;;8.50;99.90;;;;;;4894069;29;20298;-75
2023/10/30 05:43:54;;;;;;;271.23;258.77;;;8.50;99.90;;;;;;4890735;29;20040;-75
2023/10/30 05:46:20;;;;;;;92.23;87.27;;;8.50;99.90;;;;;;4874813;29;20044;-74
2023/10/30 05:48:46;;;;;;;293.70;280.23;;;8.60;99.90;;;;;;4887412;29;20044;-75
2023/10/30 05:51:11;;;;;;;361.50;342.90;;;8.50;99.90;;;;;;4875111;29;20051;-75
2023/10/30 05:53:37;;;;;;;309.27;295.43;;;8.60;99.90;;;;;;4892689;29;20047;-75
2023/10/30 05:56:03;;;;;;;295.70;282.83;;;8.60;99.90;;;;;;4890744;29;20139;-75
2023/10/30 05:58:29;;;;;;;303.23;289.47;;;8.60;99.90;;;;;;4886506;29;20370;-75
2023/10/30 06:00:55;;;;;;;322.03;307.40;;;8.60;99.90;;;;;;4868712;29;20705;-75
2023/10/30 06:03:21;;;;;;;308.30;294.57;;;8.60;99.90;;;;;;4890919;29;20045;-75
2023/10/30 06:05:47;;;;;;;297.47;284.30;;;8.60;99.90;;;;;;4875347;29;20510;-75
2023/10/30 06:08:13;;;;;;;275.10;263.13;;;8.60;99.90;;;;;;4889707;29;20114;-75
2023/10/30 06:10:39;;;;;;;379.60;362.63;;;8.60;99.90;;;;;;4890103;29;20321;-75
2023/10/30 06:13:08;;;;;;;398.40;379.63;;;8.60;99.90;;;;;;4888776;29;20056;-76
2023/10/30 06:15:36;;;;;;;446.10;424.73;;;8.60;99.90;;;;;;4900816;29;20071;-76
2023/10/30 06:18:05;;;;;;;393.73;375.47;;;8.50;99.90;;;;;;4880815;29;20281;-76
2023/10/30 06:20:31;;;;;;;424.30;403.90;;;8.50;99.90;;;;;;4881479;29;20851;-76
2023/10/30 06:22:57;;;;;;;377.43;359.83;;;8.40;99.90;;;;;;4899052;29;20446;-75
2023/10/30 06:25:24;;;;;;;393.83;375.57;;;8.30;99.90;;;;;;4900734;29;20585;-76
2023/10/30 06:27:50;;;;;;;396.67;378.03;;;8.30;99.90;;;;;;4884956;29;20048;-76
2023/10/30 06:30:17;;;;;;;375.50;358.17;;;8.30;99.90;;;;;;4894708;29;20637;-74
2023/10/30 06:32:43;;;;;;;429.47;409.20;;;8.20;99.90;;;;;;4874483;29;20577;-73
2023/10/30 06:35:10;;;;;;;437.63;416.60;;;8.20;99.90;;;;;;4893622;29;20337;-73
2023/10/30 06:37:36;;;;;;;440.10;419.33;;;8.20;99.90;;;;;;4894749;29;20455;-73
2023/10/30 06:40:03;;;;;;;447.60;426.80;;;8.20;99.90;;;;;;4901540;29;20337;-73
2023/10/30 06:42:29;;;;;;;403.27;384.40;;;8.20;99.90;;;;;;4887998;29;20056;-73
2023/10/30 06:44:55;;;;;;;404.93;385.10;;;8.20;99.90;;;;;;4893344;29;20486;-73
2023/10/30 06:47:21;;;;;;;397.63;379.10;;;8.30;99.90;;;;;;4888763;29;20041;-73
2023/10/30 06:49:46;;;;;;;395.77;377.53;;;8.30;99.90;;;;;;4877608;29;20292;-74
2023/10/30 06:52:12;;;;;;;447.83;425.37;;;8.30;99.90;;;;;;4890824;29;20392;-73
2023/10/30 06:54:38;;;;;;;406.57;388.10;;;8.30;99.90;;;;;;4878108;29;20040;-73
2023/10/30 06:57:04;;;;;;;424.75;404.27;;;8.40;99.90;;;;;;4878122;29;20068;-73
2023/10/30 06:59:30;;;;;;;424.83;404.53;;;8.40;99.90;;;;;;4893171;29;20044;-73
2023/10/30 07:01:55;;;;;;;429.03;408.37;;;8.40;99.90;;;;;;4872628;29;20072;-73
2023/10/30 07:04:24;;;;;;;438.63;417.20;;;8.50;99.90;;;;;;4893588;29;20806;-73
2023/10/30 07:06:50;;;;;;;436.60;415.75;;;8.50;99.90;;;;;;4892497;29;20060;-73
2023/10/30 07:09:17;;;;;;;470.00;446.38;;;8.60;99.90;;;;;;4893925;29;20506;-73
2023/10/30 07:11:43;;;;;;;485.05;461.27;;;8.70;99.90;;;;;;4892685;29;20048;-73
2023/10/30 07:14:09;;;;;;;429.20;409.53;;;8.70;99.90;;;;;;4876871;29;20056;-74
2023/10/30 07:16:36;;;;;;;473.73;450.98;;;8.70;99.90;;;;;;4890546;29;20041;-74
2023/10/30 07:19:02;;;;;;;435.00;414.25;;;8.80;99.90;;;;;;4877132;29;20048;-74
2023/10/30 07:21:28;;;;;;;469.03;446.43;;;8.80;99.90;;;;;;4891065;29;20052;-76
2023/10/30 07:23:55;;;;;;;464.13;441.33;;;8.90;99.90;;;;;;4876296;29;20293;-75
2023/10/30 07:26:21;;;;;;;486.67;463.10;;;8.90;99.90;;;;;;4876026;29;20293;-76
2023/10/30 07:28:51;;;;;;;465.83;443.00;;;8.90;99.90;;;;;;4892811;29;20853;-75
2023/10/30 07:31:18;;;;;;;501.73;477.33;;;9.00;99.90;;;;;;4893556;29;20049;-76
2023/10/30 07:33:49;;;;;;;457.90;435.67;;;9.10;99.90;;;;;;4876317;29;20036;-75
2023/10/30 07:36:15;;;;;;;442.73;420.93;;;9.10;99.90;;;;;;4891221;29;20792;-75
2023/10/30 07:38:41;;;;;;;462.73;439.97;;;9.20;99.90;;;;;;4889131;29;20308;-75
2023/10/30 07:41:07;;;;;;;473.87;451.43;;;9.30;99.90;;;;;;4894270;29;20877;-75
2023/10/30 07:43:34;;;;;;;494.03;469.77;;;9.40;99.90;;;;;;4876948;29;20288;-75
2023/10/30 07:45:59;;;;;;;481.67;459.13;;;9.50;99.90;;;;;;4891368;29;20315;-76
2023/10/30 07:48:28;;;;;;;474.87;452.17;;;9.60;99.90;;;;;;4891319;29;20270;-75
2023/10/30 07:50:53;;;;;;;492.43;468.87;;;9.60;99.90;;;;;;4874202;29;20036;-75
2023/10/30 07:53:19;;;;;;;535.10;509.30;;;9.70;99.90;;;;;;4891898;29;20337;-75
2023/10/30 07:55:49;;;;;;;480.80;457.23;;;9.70;99.90;;;;;;4890900;29;20058;-75
2023/10/30 07:58:15;;;;;;;505.17;480.73;;;9.80;99.90;;;;;;4877036;29;20844;-75
2023/10/30 08:00:41;;;;;;;511.53;484.70;;;9.80;99.90;;;;;;4877383;29;20284;-75
2023/10/30 08:03:07;;;;;;;457.07;434.77;;;9.80;99.90;;;;;;4875545;29;20045;-76
2023/10/30 08:05:33;;;;;;;508.93;483.57;;;9.80;99.90;;;;;;4871839;29;20402;-76
2023/10/30 08:07:59;;;;;;;494.43;469.83;;;9.80;99.90;;;;;;4887856;29;20047;-76
2023/10/30 08:10:26;;;;;;;521.47;495.23;;;9.90;99.90;;;;;;4892274;29;21140;-76
2023/10/30 08:12:52;;;;;;;521.67;495.63;;;9.90;99.90;;;;;;4876051;29;20064;-76
2023/10/30 08:15:18;;;;;;;501.60;476.10;;;9.90;99.90;;;;;;4869381;29;21064;-76
2023/10/30 08:17:44;;;;;;;529.93;503.80;;;9.90;99.90;;;;;;4889059;29;20305;-76
2023/10/30 08:20:11;;;;;;;535.70;507.90;;;10.00;99.90;;;;;;4883142;29;20052;-76
2023/10/30 08:22:36;;;;;;;458.47;435.27;;;10.10;99.90;;;;;;4871333;29;20047;-76
2023/10/30 08:25:03;;;;;;;531.87;503.97;;;10.10;99.90;;;;;;4908728;29;20771;-76
2023/10/30 08:27:29;;;;;;;499.93;475.57;;;10.20;99.90;;;;;;4887757;29;20047;-77
2023/10/30 08:29:55;;;;;;;548.13;519.90;;;10.30;99.90;;;;;;4871115;29;20284;-77
2023/10/30 08:32:21;;;;;;;525.17;497.90;;;10.30;99.90;;;;;;4867737;29;21124;-76
2023/10/30 08:34:46;;;;;;;476.80;453.90;;;10.40;99.90;;;;;;4883143;29;20052;-76
2023/10/30 08:37:12;;;;;;;497.63;472.57;;;10.50;99.90;;;;;;4903830;29;20064;-76
2023/10/30 08:39:38;;;;;;;509.37;484.33;;;10.50;99.90;;;;;;4884406;29;20576;-76
2023/10/30 08:42:04;;;;;;;512.07;485.73;;;10.60;99.90;;;;;;4895307;29;20462;-76
2023/10/30 08:44:31;;;;;;;510.20;484.97;;;10.70;99.90;;;;;;4881569;29;20442;-76
2023/10/30 08:46:57;;;;;;;538.93;507.63;;;10.70;99.90;;;;;;4882360;29;20646;-76
2023/10/30 08:49:23;;;;;;;447.20;425.53;;;10.80;99.90;;;;;;4872473;29;20371;-75
2023/10/30 08:51:49;;;;;;;486.57;462.90;;;10.90;99.90;;;;;;4873820;29;20285;-75
2023/10/30 08:54:15;;;;;;;440.00;418.63;;;11.00;99.90;;;;;;4873864;29;20048;-76
2023/10/30 08:56:42;;;;;;;446.13;424.23;;;11.10;99.90;;;;;;4864702;29;20052;-76
2023/10/30 08:59:08;;;;;;;544.37;509.83;;;11.20;99.90;;;;;;4881641;29;20108;-76
2023/10/30 09:01:34;;;;;;;443.77;422.47;;;11.40;99.90;;;;;;4872684;29;20424;-76
2023/10/30 09:04:00;;;;;;;446.50;425.00;;;11.50;99.90;;;;;;4871343;29;20468;-76
2023/10/30 09:06:27;;;;;;;454.00;431.27;;;11.60;99.90;;;;;;4872921;29;20039;-76
2023/10/30 09:08:53;;;;;;;444.43;423.23;;;11.80;99.90;;;;;;4873756;29;20786;-75
2023/10/30 09:11:19;;;;;;;481.33;456.27;;;11.90;99.90;;;;;;4888107;29;20440;-76
2023/10/30 09:13:45;;;;;;;524.83;498.70;;;12.00;99.90;;;;;;4874489;29;20296;-76
2023/10/30 09:16:11;;;;;;;477.90;453.27;;;12.00;99.90;;;;;;4875121;29;20292;-75
2023/10/30 09:18:37;;;;;;;453.33;431.40;;;12.00;99.90;;;;;;4873691;29;20044;-76
2023/10/30 09:21:03;;;;;;;469.27;446.43;;;12.00;99.90;;;;;;4873420;29;20383;-76
2023/10/30 09:23:29;;;;;;;482.40;459.33;;;12.00;99.90;;;;;;4889638;29;20364;-76
2023/10/30 09:25:55;;;;;;;439.30;417.83;;;12.10;99.90;;;;;;4871165;29;20297;-75
2023/10/30 09:28:20;;;;;;;449.80;428.23;;;12.10;99.90;;;;;;4875502;29;20515;-76
2023/10/30 09:30:46;;;;;;;549.27;513.77;;;12.20;99.90;;;;;;4873990;29;20824;-77
2023/10/30 09:33:12;;;;;;;468.47;445.10;;;12.30;99.90;;;;;;4874708;29;20518;-75
2023/10/30 09:35:38;;;;;;;457.97;435.63;;;12.30;99.90;;;;;;4873901;29;20044;-75
2023/10/30 09:38:04;;;;;;;463.00;440.00;;;12.30;99.90;;;;;;4890509;29;20055;-75
2023/10/30 09:40:30;;;;;;;399.97;380.37;;;12.40;99.90;;;;;;4887821;29;20300;-75
2023/10/30 09:42:58;;;;;;;448.03;426.67;;;12.40;99.90;;;;;;4870485;29;20637;-75
2023/10/30 09:45:25;;;;;;;420.20;400.00;;;12.40;99.90;;;;;;4871247;29;20045;-75
2023/10/30 09:47:55;;;;;;;414.13;393.90;;;12.40;99.90;;;;;;4872544;29;20280;-75
2023/10/30 09:50:23;;;;;;;415.47;395.37;;;12.40;99.90;;;;;;4878747;29;21600;-75
2023/10/30 09:52:50;;;;;;;434.80;414.03;;;12.50;99.90;;;;;;4903786;29;20344;-75
2023/10/30 09:55:22;;;;;;;483.67;459.47;;;12.60;99.90;;;;;;4884202;29;20300;-76
2023/10/30 09:57:48;;;;;;;600.03;536.07;;;12.70;99.90;;;;;;4888029;29;20297;-75
2023/10/30 10:00:16;;;;;;;430.47;409.50;;;12.80;99.00;;;;;;4890163;29;20291;-75
2023/10/30 10:02:42;;;;;;;450.63;427.70;;;12.90;99.50;;;;;;4872512;29;20408;-75
2023/10/30 10:05:12;;;;;;;410.90;390.73;;;12.90;98.90;;;;;;4870705;29;20297;-75
2023/10/30 10:07:38;;;;;;;432.00;410.07;;;13.00;98.40;;;;;;4869464;29;20377;-75
2023/10/30 10:10:14;;;;;;;407.43;387.90;;;13.00;97.40;;;;;;4887179;29;20313;-75
2023/10/30 10:12:40;;;;;;;438.57;415.33;;;13.00;97.30;;;;;;4886472;29;20311;-75
2023/10/30 10:15:07;;;;;;;459.37;435.03;;;13.00;96.10;;;;;;4902308;29;20289;-75
2023/10/30 10:17:44;;;;;;;448.77;426.30;;;12.90;97.40;;;;;;4890085;29;20068;-75
2023/10/30 10:20:11;;;;;;;402.33;382.27;;;12.80;96.70;;;;;;4889172;29;20354;-75
2023/10/30 10:22:38;;;;;;;425.80;402.23;;;12.70;97.00;;;;;;4888414;29;21076;-75
2023/10/30 10:25:05;;;;;;;426.40;405.37;;;12.60;97.60;;;;;;4889463;29;20293;-75
2023/10/30 10:27:30;;;;;;;376.40;357.30;;;12.50;98.30;;;;;;4874117;29;20291;-75
2023/10/30 10:29:57;;;;;;;391.30;371.83;;;12.60;99.00;;;;;;4889719;29;20737;-75
2023/10/30 10:32:27;;;;;;;434.30;412.73;;;12.60;98.90;;;;;;4872510;29;20200;-75
2023/10/30 10:34:58;;;;;;;472.33;448.60;;;12.70;99.40;;;;;;4873684;29;20300;-75
2023/10/30 10:37:24;;;;;;;434.30;411.60;;;12.80;98.80;;;;;;4890228;29;20811;-75
2023/10/30 10:39:53;;;;;;;446.63;424.23;;;12.80;99.30;;;;;;4889801;29;20297;-75
2023/10/30 10:42:23;;;;;;;384.70;365.53;;;12.90;99.50;;;;;;4888500;29;20305;-75
2023/10/30 10:44:51;;;;;;;417.40;396.70;;;12.90;98.00;;;;;;4889210;29;20300;-75
2023/10/30 10:47:19;;;;;;;426.27;405.00;;;13.10;98.30;;;;;;4873969;29;20820;-75
2023/10/30 10:49:45;;;;;;;417.90;397.30;;;13.30;96.70;;;;;;4873586;29;20311;-75
2023/10/30 10:52:12;;;;;;;421.57;400.13;;;13.40;95.90;;;;;;4873258;29;20280;-75
2023/10/30 10:54:41;;;;;;;435.27;413.50;;;13.40;96.00;;;;;;4870530;29;20083;-75
2023/10/30 10:57:08;;;;;;;407.33;386.93;;;13.50;96.20;;;;;;4872069;29;20301;-74
2023/10/30 10:59:36;;;;;;;408.20;387.20;;;13.50;95.50;;;;;;4880413;29;20285;-75
2023/10/30 11:02:08;;;;;;;457.87;434.77;;;13.40;95.70;;;;;;4860540;29;20365;-75
2023/10/30 11:04:34;;;;;;;448.23;425.73;;;13.30;95.90;;;;;;4887785;29;20272;-74
2023/10/30 11:07:07;;;;;;;318.83;303.83;;;13.30;96.10;;;;;;4871693;29;20281;-74
2023/10/30 11:09:47;;;;;;;394.77;375.77;;;13.20;96.30;;;;;;4869163;29;20052;-75
2023/10/30 11:12:19;;;;;;;414.10;393.57;;;13.20;96.30;;;;;;4875645;29;20297;-75
2023/10/30 11:14:58;;;;;;;443.97;421.87;;;13.20;96.20;;;;;;4886074;29;20292;-74
2023/10/30 11:17:26;;;;;;;449.87;428.13;;;13.30;96.60;;;;;;4877906;29;20352;-74
2023/10/30 11:20:06;;;;;;;357.40;339.90;;;13.40;95.40;;;;;;4877536;29;20289;-74
2023/10/30 11:22:50;;;;;;;442.70;418.30;;;13.50;95.30;;;;;;4907204;29;20736;-74
2023/10/30 11:25:44;;;;;;;414.07;392.37;;;13.50;94.50;;;;;;4888724;29;20280;-74
2023/10/30 11:28:10;;;;;;;436.00;414.97;;;13.50;94.30;;;;;;4889510;29;20332;-74
2023/10/30 11:30:43;;;;;;;424.43;403.70;;;13.50;94.80;;;;;;4892120;29;20281;-75
2023/10/30 11:33:24;;;;;;;405.20;385.27;;;13.50;95.70;;;;;;4892172;29;20087;-74
2023/10/30 11:36:15;;;;;;;459.90;435.47;;;13.50;94.90;;;;;;4889724;29;20368;-74
2023/10/30 11:38:59;;;;;;;325.40;310.00;;;13.50;94.10;;;;;;4893411;29;20647;-74
2023/10/30 11:41:28;;;;;;;403.00;383.30;;;13.50;94.40;;;;;;4870031;29;20320;-75
2023/10/30 11:44:13;;;;;;;368.43;350.70;;;13.50;94.50;;;;;;4888903;29;20293;-75
2023/10/30 11:46:40;;;;;;;397.10;376.90;;;13.50;95.30;;;;;;4869952;29;20297;-74
2023/10/30 11:49:08;;;;;;;404.50;385.10;;;13.50;94.50;;;;;;4889462;29;20045;-75
2023/10/30 11:51:36;;;;;;;435.80;412.87;;;13.60;95.60;;;;;;4886010;29;20316;-75
2023/10/30 11:54:02;;;;;;;278.90;265.63;;;13.60;94.40;;;;;;4883326;29;20301;-75
2023/10/30 11:56:27;;;;;;;384.23;363.93;;;13.60;94.90;;;;;;4889505;29;20321;-74
2023/10/30 11:58:54;;;;;;;431.40;408.80;;;13.60;93.70;;;;;;4888832;29;20053;-75
2023/10/30 12:01:21;;;;;;;424.83;403.43;;;13.60;94.70;;;;;;4889708;29;20127;-75
2023/10/30 12:03:48;;;;;;;444.50;422.60;;;13.60;94.90;;;;;;4885585;29;20340;-75
2023/10/30 12:06:14;;;;;;;416.80;396.30;;;13.60;95.20;;;;;;4873198;29;20284;-75
2023/10/30 12:08:39;;;;;;;442.10;419.93;;;13.60;94.90;;;;;;4876078;29;20289;-75
2023/10/30 12:11:05;;;;;;;448.03;425.57;;;13.60;94.90;;;;;;4872514;29;20293;-75
2023/10/30 12:13:31;;;;;;;421.47;400.80;;;13.60;94.60;;;;;;4881755;29;20067;-75
2023/10/30 12:15:57;;;;;;;435.07;413.60;;;13.60;93.90;;;;;;4880454;29;20040;-75